sensor_id;sensor_type;location;lat;lon;timestamp;P1;durP1;ratioP1;P2;durP2;ratioP2
12024;SDS011;6073;53.230;10.444;2023-11-18T00:00:07;10.02;;;6.95;;
12024;SDS011;6073;53.230;10.444;2023-11-18T00:02:37;8.27;;;5.72;;
12024;SDS011;6073;53.230;10.444;2023-11-18T00:05:03;8.68;;;6.38;;
12024;SDS011;6073;53.230;10.444;2023-11-18T00:07:32;9.70;;;6.70;;
12024;SDS011;6073;53.230;10.444;2023-11-18T00:09:57;10.43;;;6.65;;
12024;SDS011;6073;53.230;10.444;2023-11-18T00:12:23;9.55;;;6.10;;
12024;SDS011;6073;53.230;10.444;2023-11-18T00:14:51;10.10;;;7.05;;
12024;SDS011;6073;53.230;10.444;2023-11-18T00:17:16;8.68;;;6.55;;
12024;SDS011;6073;53.230;10.444;2023-11-18T00:19:42;10.77;;;7.00;;
12024;SDS011;6073;53.230;10.444;2023-11-18T00:22:09;8.75;;;6.15;;
12024;SDS011;6073;53.230;10.444;2023-11-18T00:24:36;8.75;;;5.90;;
12024;SDS011;6073;53.230;10.444;2023-11-18T00:27:01;9.18;;;7.03;;
12024;SDS011;6073;53.230;10.444;2023-11-18T00:29:34;8.98;;;6.55;;
12024;SDS011;6073;53.230;10.444;2023-11-18T00:32:03;8.85;;;5.88;;
12024;SDS011;6073;53.230;10.444;2023-11-18T00:34:29;11.40;;;6.15;;
12024;SDS011;6073;53.230;10.444;2023-11-18T00:36:57;8.07;;;5.95;;
12024;SDS011;6073;53.230;10.444;2023-11-18T00:39:23;9.07;;;6.05;;
12024;SDS011;6073;53.230;10.444;2023-11-18T00:41:50;10.50;;;6.60;;
12024;SDS011;6073;53.230;10.444;2023-11-18T00:44:15;12.35;;;6.68;;
12024;SDS011;6073;53.230;10.444;2023-11-18T00:46:41;9.60;;;6.07;;
12024;SDS011;6073;53.230;10.444;2023-11-18T00:49:07;8.68;;;6.00;;
12024;SDS011;6073;53.230;10.444;2023-11-18T00:51:32;7.63;;;5.65;;
12024;SDS011;6073;53.230;10.444;2023-11-18T00:53:58;8.70;;;5.60;;
12024;SDS011;6073;53.230;10.444;2023-11-18T00:56:26;7.88;;;5.53;;
12024;SDS011;6073;53.230;10.444;2023-11-18T00:58:53;8.90;;;5.72;;
12024;SDS011;6073;53.230;10.444;2023-11-18T01:06:22;9.65;;;5.90;;
12024;SDS011;6073;53.230;10.444;2023-11-18T01:08:48;9.38;;;6.20;;
12024;SDS011;6073;53.230;10.444;2023-11-18T01:11:17;9.13;;;6.20;;
12024;SDS011;6073;53.230;10.444;2023-11-18T01:13:47;8.10;;;5.68;;
12024;SDS011;6073;53.230;10.444;2023-11-18T01:16:16;7.07;;;5.47;;
12024;SDS011;6073;53.230;10.444;2023-11-18T01:18:42;7.82;;;5.32;;
12024;SDS011;6073;53.230;10.444;2023-11-18T01:21:08;11.82;;;7.78;;
12024;SDS011;6073;53.230;10.444;2023-11-18T01:23:37;7.95;;;5.78;;
12024;SDS011;6073;53.230;10.444;2023-11-18T01:26:04;9.32;;;6.47;;
12024;SDS011;6073;53.230;10.444;2023-11-18T01:28:31;8.45;;;5.95;;
12024;SDS011;6073;53.230;10.444;2023-11-18T01:31:06;8.77;;;5.80;;
12024;SDS011;6073;53.230;10.444;2023-11-18T01:33:35;7.95;;;5.70;;
12024;SDS011;6073;53.230;10.444;2023-11-18T01:36:09;9.32;;;5.95;;
12024;SDS011;6073;53.230;10.444;2023-11-18T01:38:35;8.77;;;6.13;;
12024;SDS011;6073;53.230;10.444;2023-11-18T01:41:05;9.05;;;6.18;;
12024;SDS011;6073;53.230;10.444;2023-11-18T01:43:31;7.35;;;5.18;;
12024;SDS011;6073;53.230;10.444;2023-11-18T01:45:58;10.05;;;6.20;;
12024;SDS011;6073;53.230;10.444;2023-11-18T01:48:28;11.23;;;6.80;;
12024;SDS011;6073;53.230;10.444;2023-11-18T01:50:56;9.02;;;6.15;;
12024;SDS011;6073;53.230;10.444;2023-11-18T01:53:23;7.45;;;5.38;;
12024;SDS011;6073;53.230;10.444;2023-11-18T01:55:49;8.23;;;5.45;;
12024;SDS011;6073;53.230;10.444;2023-11-18T01:58:14;9.07;;;5.60;;
12024;SDS011;6073;53.230;10.444;2023-11-18T02:00:44;8.70;;;6.03;;
12024;SDS011;6073;53.230;10.444;2023-11-18T02:03:14;9.18;;;6.35;;
12024;SDS011;6073;53.230;10.444;2023-11-18T02:05:40;10.05;;;6.20;;
12024;SDS011;6073;53.230;10.444;2023-11-18T02:08:07;8.73;;;5.93;;
12024;SDS011;6073;53.230;10.444;2023-11-18T02:10:33;7.97;;;5.43;;
12024;SDS011;6073;53.230;10.444;2023-11-18T02:13:06;7.43;;;5.38;;
12024;SDS011;6073;53.230;10.444;2023-11-18T02:15:37;8.65;;;5.75;;
12024;SDS011;6073;53.230;10.444;2023-11-18T02:18:05;8.75;;;5.85;;
12024;SDS011;6073;53.230;10.444;2023-11-18T02:20:35;9.02;;;6.15;;
12024;SDS011;6073;53.230;10.444;2023-11-18T02:23:01;9.05;;;5.10;;
12024;SDS011;6073;53.230;10.444;2023-11-18T02:25:27;9.10;;;5.72;;
12024;SDS011;6073;53.230;10.444;2023-11-18T02:27:58;8.05;;;5.43;;
12024;SDS011;6073;53.230;10.444;2023-11-18T02:30:23;9.93;;;6.47;;
12024;SDS011;6073;53.230;10.444;2023-11-18T02:33:03;8.73;;;6.10;;
12024;SDS011;6073;53.230;10.444;2023-11-18T02:35:41;8.18;;;6.00;;
12024;SDS011;6073;53.230;10.444;2023-11-18T02:38:13;8.77;;;6.57;;
12024;SDS011;6073;53.230;10.444;2023-11-18T02:40:42;8.60;;;6.20;;
12024;SDS011;6073;53.230;10.444;2023-11-18T02:43:09;10.18;;;6.22;;
12024;SDS011;6073;53.230;10.444;2023-11-18T02:45:36;8.70;;;6.00;;
12024;SDS011;6073;53.230;10.444;2023-11-18T02:48:02;7.93;;;5.32;;
12024;SDS011;6073;53.230;10.444;2023-11-18T02:50:29;10.43;;;6.10;;
12024;SDS011;6073;53.230;10.444;2023-11-18T02:52:55;11.55;;;6.47;;
12024;SDS011;6073;53.230;10.444;2023-11-18T02:55:21;8.73;;;6.15;;
12024;SDS011;6073;53.230;10.444;2023-11-18T02:57:47;9.25;;;6.18;;
12024;SDS011;6073;53.230;10.444;2023-11-18T03:00:14;9.80;;;6.00;;
12024;SDS011;6073;53.230;10.444;2023-11-18T03:02:46;8.52;;;5.90;;
12024;SDS011;6073;53.230;10.444;2023-11-18T03:05:17;9.48;;;5.55;;
12024;SDS011;6073;53.230;10.444;2023-11-18T03:07:43;10.32;;;5.53;;
12024;SDS011;6073;53.230;10.444;2023-11-18T03:10:17;8.75;;;5.57;;
12024;SDS011;6073;53.230;10.444;2023-11-18T03:12:47;7.88;;;5.38;;
12024;SDS011;6073;53.230;10.444;2023-11-18T03:15:13;11.88;;;6.13;;
12024;SDS011;6073;53.230;10.444;2023-11-18T03:17:38;9.85;;;5.65;;
12024;SDS011;6073;53.230;10.444;2023-11-18T03:20:04;7.95;;;5.68;;
12024;SDS011;6073;53.230;10.444;2023-11-18T03:22:36;8.27;;;5.80;;
12024;SDS011;6073;53.230;10.444;2023-11-18T03:25:02;6.60;;;4.63;;
12024;SDS011;6073;53.230;10.444;2023-11-18T03:27:30;7.85;;;5.28;;
12024;SDS011;6073;53.230;10.444;2023-11-18T03:29:55;7.18;;;5.18;;
12024;SDS011;6073;53.230;10.444;2023-11-18T03:32:21;7.82;;;5.53;;
12024;SDS011;6073;53.230;10.444;2023-11-18T03:34:46;10.70;;;5.60;;
12024;SDS011;6073;53.230;10.444;2023-11-18T03:37:12;8.88;;;5.78;;
12024;SDS011;6073;53.230;10.444;2023-11-18T03:39:38;8.25;;;5.70;;
12024;SDS011;6073;53.230;10.444;2023-11-18T03:42:03;8.18;;;5.47;;
12024;SDS011;6073;53.230;10.444;2023-11-18T03:44:29;7.50;;;5.35;;
12024;SDS011;6073;53.230;10.444;2023-11-18T03:46:54;8.13;;;5.50;;
12024;SDS011;6073;53.230;10.444;2023-11-18T03:49:20;7.65;;;5.22;;
12024;SDS011;6073;53.230;10.444;2023-11-18T03:51:46;9.32;;;6.10;;
12024;SDS011;6073;53.230;10.444;2023-11-18T03:54:12;8.73;;;5.38;;
12024;SDS011;6073;53.230;10.444;2023-11-18T03:56:38;8.13;;;5.45;;
12024;SDS011;6073;53.230;10.444;2023-11-18T03:59:04;10.32;;;5.88;;
12024;SDS011;6073;53.230;10.444;2023-11-18T04:01:30;10.30;;;5.78;;
12024;SDS011;6073;53.230;10.444;2023-11-18T04:03:55;8.02;;;5.18;;
12024;SDS011;6073;53.230;10.444;2023-11-18T04:06:21;8.60;;;5.38;;
12024;SDS011;6073;53.230;10.444;2023-11-18T04:08:48;9.10;;;5.60;;
12024;SDS011;6073;53.230;10.444;2023-11-18T04:11:14;7.53;;;5.13;;
12024;SDS011;6073;53.230;10.444;2023-11-18T04:13:40;7.03;;;5.68;;
12024;SDS011;6073;53.230;10.444;2023-11-18T04:16:12;8.25;;;4.93;;
12024;SDS011;6073;53.230;10.444;2023-11-18T04:18:40;6.63;;;5.07;;
12024;SDS011;6073;53.230;10.444;2023-11-18T04:21:07;6.85;;;5.28;;
12024;SDS011;6073;53.230;10.444;2023-11-18T04:23:42;7.15;;;5.45;;
12024;SDS011;6073;53.230;10.444;2023-11-18T04:26:07;8.45;;;5.25;;
12024;SDS011;6073;53.230;10.444;2023-11-18T04:28:34;7.75;;;5.20;;
12024;SDS011;6073;53.230;10.444;2023-11-18T04:31:00;8.07;;;5.35;;
12024;SDS011;6073;53.230;10.444;2023-11-18T04:33:27;8.10;;;5.38;;
12024;SDS011;6073;53.230;10.444;2023-11-18T04:35:54;7.63;;;5.25;;
12024;SDS011;6073;53.230;10.444;2023-11-18T04:38:22;7.18;;;5.18;;
12024;SDS011;6073;53.230;10.444;2023-11-18T04:40:47;10.50;;;6.10;;
12024;SDS011;6073;53.230;10.444;2023-11-18T04:43:13;10.63;;;6.03;;
12024;SDS011;6073;53.230;10.444;2023-11-18T04:45:39;8.00;;;5.65;;
12024;SDS011;6073;53.230;10.444;2023-11-18T04:48:04;9.48;;;5.47;;
12024;SDS011;6073;53.230;10.444;2023-11-18T04:50:31;6.65;;;4.53;;
12024;SDS011;6073;53.230;10.444;2023-11-18T04:52:58;9.10;;;5.20;;
12024;SDS011;6073;53.230;10.444;2023-11-18T04:55:23;7.03;;;5.00;;
12024;SDS011;6073;53.230;10.444;2023-11-18T04:57:51;9.30;;;5.38;;
12024;SDS011;6073;53.230;10.444;2023-11-18T05:00:16;8.55;;;5.43;;
12024;SDS011;6073;53.230;10.444;2023-11-18T05:02:45;7.38;;;4.78;;
12024;SDS011;6073;53.230;10.444;2023-11-18T05:05:14;6.70;;;4.85;;
12024;SDS011;6073;53.230;10.444;2023-11-18T05:07:41;10.15;;;5.13;;
12024;SDS011;6073;53.230;10.444;2023-11-18T05:10:07;9.18;;;5.60;;
12024;SDS011;6073;53.230;10.444;2023-11-18T05:12:33;6.50;;;4.13;;
12024;SDS011;6073;53.230;10.444;2023-11-18T05:14:59;6.78;;;4.85;;
12024;SDS011;6073;53.230;10.444;2023-11-18T05:17:25;9.80;;;5.68;;
12024;SDS011;6073;53.230;10.444;2023-11-18T05:19:52;11.63;;;5.45;;
12024;SDS011;6073;53.230;10.444;2023-11-18T05:22:18;9.65;;;4.93;;
12024;SDS011;6073;53.230;10.444;2023-11-18T05:24:44;7.32;;;4.85;;
12024;SDS011;6073;53.230;10.444;2023-11-18T05:27:09;6.57;;;4.65;;
12024;SDS011;6073;53.230;10.444;2023-11-18T05:29:35;8.05;;;5.00;;
12024;SDS011;6073;53.230;10.444;2023-11-18T05:32:00;9.65;;;5.55;;
12024;SDS011;6073;53.230;10.444;2023-11-18T05:34:26;7.45;;;4.93;;
12024;SDS011;6073;53.230;10.444;2023-11-18T05:36:51;7.28;;;4.38;;
12024;SDS011;6073;53.230;10.444;2023-11-18T05:39:23;6.07;;;4.43;;
12024;SDS011;6073;53.230;10.444;2023-11-18T05:41:53;7.57;;;4.68;;
12024;SDS011;6073;53.230;10.444;2023-11-18T05:44:21;7.88;;;5.07;;
12024;SDS011;6073;53.230;10.444;2023-11-18T05:46:55;8.57;;;4.70;;
12024;SDS011;6073;53.230;10.444;2023-11-18T05:49:23;7.95;;;5.30;;
12024;SDS011;6073;53.230;10.444;2023-11-18T05:51:49;7.43;;;4.65;;
12024;SDS011;6073;53.230;10.444;2023-11-18T05:54:15;6.25;;;4.60;;
12024;SDS011;6073;53.230;10.444;2023-11-18T05:56:40;7.70;;;4.97;;
12024;SDS011;6073;53.230;10.444;2023-11-18T05:59:06;8.35;;;4.82;;
12024;SDS011;6073;53.230;10.444;2023-11-18T06:01:33;8.82;;;5.25;;
12024;SDS011;6073;53.230;10.444;2023-11-18T06:03:59;5.55;;;4.32;;
12024;SDS011;6073;53.230;10.444;2023-11-18T06:06:26;8.45;;;4.90;;
12024;SDS011;6073;53.230;10.444;2023-11-18T06:08:51;7.97;;;5.03;;
12024;SDS011;6073;53.230;10.444;2023-11-18T06:11:18;7.93;;;4.75;;
12024;SDS011;6073;53.230;10.444;2023-11-18T06:18:43;8.48;;;4.95;;
12024;SDS011;6073;53.230;10.444;2023-11-18T06:21:12;8.65;;;4.97;;
12024;SDS011;6073;53.230;10.444;2023-11-18T06:23:39;8.45;;;5.03;;
12024;SDS011;6073;53.230;10.444;2023-11-18T06:26:05;8.52;;;5.40;;
12024;SDS011;6073;53.230;10.444;2023-11-18T06:28:31;10.25;;;5.57;;
12024;SDS011;6073;53.230;10.444;2023-11-18T06:30:58;9.73;;;5.03;;
12024;SDS011;6073;53.230;10.444;2023-11-18T06:33:24;8.50;;;5.25;;
12024;SDS011;6073;53.230;10.444;2023-11-18T06:35:52;8.10;;;5.03;;
12024;SDS011;6073;53.230;10.444;2023-11-18T06:38:19;9.02;;;5.07;;
12024;SDS011;6073;53.230;10.444;2023-11-18T06:40:45;6.75;;;4.47;;
12024;SDS011;6073;53.230;10.444;2023-11-18T06:43:11;9.38;;;5.40;;
12024;SDS011;6073;53.230;10.444;2023-11-18T06:45:37;8.38;;;4.93;;
12024;SDS011;6073;53.230;10.444;2023-11-18T06:48:08;8.43;;;5.65;;
12024;SDS011;6073;53.230;10.444;2023-11-18T06:50:34;10.18;;;5.40;;
12024;SDS011;6073;53.230;10.444;2023-11-18T06:53:00;10.93;;;6.43;;
12024;SDS011;6073;53.230;10.444;2023-11-18T06:55:25;11.35;;;6.22;;
12024;SDS011;6073;53.230;10.444;2023-11-18T06:57:51;8.02;;;5.68;;
12024;SDS011;6073;53.230;10.444;2023-11-18T07:00:19;10.15;;;5.57;;
12024;SDS011;6073;53.230;10.444;2023-11-18T07:02:46;8.18;;;5.10;;
12024;SDS011;6073;53.230;10.444;2023-11-18T07:05:12;6.45;;;5.00;;
12024;SDS011;6073;53.230;10.444;2023-11-18T07:07:39;7.60;;;4.80;;
12024;SDS011;6073;53.230;10.444;2023-11-18T07:10:05;9.23;;;5.45;;
12024;SDS011;6073;53.230;10.444;2023-11-18T07:12:32;7.22;;;4.82;;
12024;SDS011;6073;53.230;10.444;2023-11-18T07:14:59;7.70;;;4.93;;
12024;SDS011;6073;53.230;10.444;2023-11-18T07:17:26;8.30;;;5.07;;
12024;SDS011;6073;53.230;10.444;2023-11-18T07:19:51;7.65;;;4.82;;
12024;SDS011;6073;53.230;10.444;2023-11-18T07:22:17;8.10;;;4.88;;
12024;SDS011;6073;53.230;10.444;2023-11-18T07:24:42;8.38;;;5.20;;
12024;SDS011;6073;53.230;10.444;2023-11-18T07:27:08;7.97;;;4.47;;
12024;SDS011;6073;53.230;10.444;2023-11-18T07:29:36;9.25;;;4.85;;
12024;SDS011;6073;53.230;10.444;2023-11-18T07:32:02;8.82;;;5.40;;
12024;SDS011;6073;53.230;10.444;2023-11-18T07:34:30;11.27;;;5.63;;
12024;SDS011;6073;53.230;10.444;2023-11-18T07:36:58;12.85;;;6.40;;
12024;SDS011;6073;53.230;10.444;2023-11-18T07:39:23;10.13;;;4.72;;
12024;SDS011;6073;53.230;10.444;2023-11-18T07:42:01;10.43;;;5.13;;
12024;SDS011;6073;53.230;10.444;2023-11-18T07:44:26;10.07;;;5.13;;
12024;SDS011;6073;53.230;10.444;2023-11-18T07:46:52;12.98;;;7.18;;
12024;SDS011;6073;53.230;10.444;2023-11-18T07:49:18;9.13;;;5.82;;
12024;SDS011;6073;53.230;10.444;2023-11-18T07:51:44;9.55;;;5.95;;
12024;SDS011;6073;53.230;10.444;2023-11-18T07:54:09;8.80;;;5.82;;
12024;SDS011;6073;53.230;10.444;2023-11-18T07:56:35;11.07;;;5.25;;
12024;SDS011;6073;53.230;10.444;2023-11-18T07:59:01;10.40;;;6.00;;
12024;SDS011;6073;53.230;10.444;2023-11-18T08:01:28;11.27;;;5.38;;
12024;SDS011;6073;53.230;10.444;2023-11-18T08:03:55;11.95;;;5.95;;
12024;SDS011;6073;53.230;10.444;2023-11-18T08:06:20;10.75;;;5.65;;
12024;SDS011;6073;53.230;10.444;2023-11-18T08:08:46;9.68;;;5.43;;
12024;SDS011;6073;53.230;10.444;2023-11-18T08:11:13;8.32;;;5.63;;
12024;SDS011;6073;53.230;10.444;2023-11-18T08:13:39;10.52;;;5.75;;
12024;SDS011;6073;53.230;10.444;2023-11-18T08:16:05;8.82;;;5.07;;
12024;SDS011;6073;53.230;10.444;2023-11-18T08:18:33;9.48;;;5.10;;
12024;SDS011;6073;53.230;10.444;2023-11-18T08:21:00;9.75;;;5.20;;
12024;SDS011;6073;53.230;10.444;2023-11-18T08:23:26;9.50;;;5.57;;
12024;SDS011;6073;53.230;10.444;2023-11-18T08:25:56;11.43;;;5.72;;
12024;SDS011;6073;53.230;10.444;2023-11-18T08:28:22;11.40;;;5.95;;
12024;SDS011;6073;53.230;10.444;2023-11-18T08:30:47;9.63;;;5.90;;
12024;SDS011;6073;53.230;10.444;2023-11-18T08:33:13;10.82;;;6.53;;
12024;SDS011;6073;53.230;10.444;2023-11-18T08:35:39;11.05;;;6.15;;
12024;SDS011;6073;53.230;10.444;2023-11-18T08:38:07;8.25;;;4.47;;
12024;SDS011;6073;53.230;10.444;2023-11-18T08:40:32;7.88;;;4.72;;
12024;SDS011;6073;53.230;10.444;2023-11-18T08:42:59;9.85;;;5.60;;
12024;SDS011;6073;53.230;10.444;2023-11-18T08:45:26;8.27;;;5.25;;
12024;SDS011;6073;53.230;10.444;2023-11-18T08:47:54;8.43;;;5.47;;
12024;SDS011;6073;53.230;10.444;2023-11-18T08:50:20;9.32;;;5.07;;
12024;SDS011;6073;53.230;10.444;2023-11-18T08:52:49;7.40;;;4.93;;
12024;SDS011;6073;53.230;10.444;2023-11-18T08:55:19;8.82;;;5.40;;
12024;SDS011;6073;53.230;10.444;2023-11-18T08:57:49;6.93;;;4.78;;
12024;SDS011;6073;53.230;10.444;2023-11-18T09:00:25;9.43;;;5.03;;
12024;SDS011;6073;53.230;10.444;2023-11-18T09:03:10;7.72;;;5.43;;
12024;SDS011;6073;53.230;10.444;2023-11-18T09:05:52;8.32;;;5.15;;
12024;SDS011;6073;53.230;10.444;2023-11-18T09:08:32;11.52;;;6.50;;
12024;SDS011;6073;53.230;10.444;2023-11-18T09:11:08;9.43;;;5.90;;
12024;SDS011;6073;53.230;10.444;2023-11-18T09:13:36;10.50;;;6.20;;
12024;SDS011;6073;53.230;10.444;2023-11-18T09:16:05;12.10;;;6.80;;
12024;SDS011;6073;53.230;10.444;2023-11-18T09:18:35;9.90;;;5.97;;
12024;SDS011;6073;53.230;10.444;2023-11-18T09:21:01;10.13;;;5.68;;
12024;SDS011;6073;53.230;10.444;2023-11-18T09:23:29;10.60;;;6.65;;
12024;SDS011;6073;53.230;10.444;2023-11-18T09:25:56;11.02;;;6.22;;
12024;SDS011;6073;53.230;10.444;2023-11-18T09:28:25;13.43;;;7.50;;
12024;SDS011;6073;53.230;10.444;2023-11-18T09:30:54;12.38;;;6.95;;
12024;SDS011;6073;53.230;10.444;2023-11-18T09:33:22;12.13;;;7.35;;
12024;SDS011;6073;53.230;10.444;2023-11-18T09:36:03;8.77;;;6.38;;
12024;SDS011;6073;53.230;10.444;2023-11-18T09:38:32;8.52;;;6.03;;
12024;SDS011;6073;53.230;10.444;2023-11-18T09:41:00;7.40;;;4.85;;
12024;SDS011;6073;53.230;10.444;2023-11-18T09:43:32;5.65;;;3.45;;
12024;SDS011;6073;53.230;10.444;2023-11-18T09:46:05;6.85;;;3.95;;
12024;SDS011;6073;53.230;10.444;2023-11-18T09:49:26;4.10;;;3.22;;
12024;SDS011;6073;53.230;10.444;2023-11-18T09:51:50;5.70;;;3.55;;
12024;SDS011;6073;53.230;10.444;2023-11-18T09:57:40;4.53;;;2.85;;
12024;SDS011;6073;53.230;10.444;2023-11-18T10:00:10;4.53;;;3.15;;
12024;SDS011;6073;53.230;10.444;2023-11-18T10:02:49;5.85;;;2.75;;
12024;SDS011;6073;53.230;10.444;2023-11-18T10:05:15;4.30;;;2.67;;
12024;SDS011;6073;53.230;10.444;2023-11-18T10:07:45;3.60;;;2.63;;
12024;SDS011;6073;53.230;10.444;2023-11-18T10:10:12;6.80;;;3.22;;
12024;SDS011;6073;53.230;10.444;2023-11-18T10:12:45;5.97;;;3.70;;
12024;SDS011;6073;53.230;10.444;2023-11-18T10:15:17;4.57;;;3.00;;
12024;SDS011;6073;53.230;10.444;2023-11-18T10:17:50;3.03;;;2.40;;
12024;SDS011;6073;53.230;10.444;2023-11-18T10:20:44;3.58;;;2.75;;
12024;SDS011;6073;53.230;10.444;2023-11-18T10:23:10;3.88;;;2.65;;
12024;SDS011;6073;53.230;10.444;2023-11-18T10:25:46;4.28;;;2.63;;
12024;SDS011;6073;53.230;10.444;2023-11-18T10:28:24;3.58;;;2.30;;
12024;SDS011;6073;53.230;10.444;2023-11-18T10:30:52;2.80;;;2.17;;
12024;SDS011;6073;53.230;10.444;2023-11-18T10:33:23;3.28;;;2.97;;
12024;SDS011;6073;53.230;10.444;2023-11-18T10:35:55;3.13;;;2.40;;
12024;SDS011;6073;53.230;10.444;2023-11-18T10:38:21;3.05;;;2.33;;
12024;SDS011;6073;53.230;10.444;2023-11-18T10:40:54;3.35;;;2.60;;
12024;SDS011;6073;53.230;10.444;2023-11-18T10:43:21;3.35;;;2.70;;
12024;SDS011;6073;53.230;10.444;2023-11-18T10:45:49;5.57;;;3.03;;
12024;SDS011;6073;53.230;10.444;2023-11-18T10:48:17;4.88;;;3.13;;
12024;SDS011;6073;53.230;10.444;2023-11-18T10:50:48;5.88;;;3.20;;
12024;SDS011;6073;53.230;10.444;2023-11-18T10:53:15;4.10;;;3.00;;
12024;SDS011;6073;53.230;10.444;2023-11-18T10:55:43;3.10;;;2.30;;
12024;SDS011;6073;53.230;10.444;2023-11-18T10:58:08;3.17;;;2.45;;
12024;SDS011;6073;53.230;10.444;2023-11-18T11:00:47;2.97;;;2.20;;
12024;SDS011;6073;53.230;10.444;2023-11-18T11:03:18;3.85;;;2.28;;
12024;SDS011;6073;53.230;10.444;2023-11-18T11:05:44;2.53;;;2.25;;
12024;SDS011;6073;53.230;10.444;2023-11-18T11:08:16;4.32;;;3.05;;
12024;SDS011;6073;53.230;10.444;2023-11-18T11:10:43;2.83;;;2.22;;
12024;SDS011;6073;53.230;10.444;2023-11-18T11:13:09;3.60;;;2.67;;
12024;SDS011;6073;53.230;10.444;2023-11-18T11:15:42;3.65;;;2.78;;
12024;SDS011;6073;53.230;10.444;2023-11-18T11:18:19;3.28;;;2.78;;
12024;SDS011;6073;53.230;10.444;2023-11-18T11:23:55;3.47;;;2.50;;
12024;SDS011;6073;53.230;10.444;2023-11-18T11:26:41;3.80;;;3.28;;
12024;SDS011;6073;53.230;10.444;2023-11-18T11:29:23;3.30;;;2.50;;
12024;SDS011;6073;53.230;10.444;2023-11-18T11:32:28;4.95;;;3.20;;
12024;SDS011;6073;53.230;10.444;2023-11-18T11:34:56;4.32;;;3.10;;
12024;SDS011;6073;53.230;10.444;2023-11-18T11:37:30;3.10;;;2.53;;
12024;SDS011;6073;53.230;10.444;2023-11-18T11:39:59;3.97;;;2.20;;
12024;SDS011;6073;53.230;10.444;2023-11-18T11:42:29;3.13;;;2.25;;
12024;SDS011;6073;53.230;10.444;2023-11-18T11:44:56;3.10;;;2.20;;
12024;SDS011;6073;53.230;10.444;2023-11-18T11:47:23;3.17;;;2.30;;
12024;SDS011;6073;53.230;10.444;2023-11-18T11:50:07;3.08;;;2.75;;
12024;SDS011;6073;53.230;10.444;2023-11-18T11:52:44;2.53;;;2.20;;
12024;SDS011;6073;53.230;10.444;2023-11-18T11:55:19;4.78;;;2.58;;
12024;SDS011;6073;53.230;10.444;2023-11-18T12:00:56;3.08;;;2.40;;
12024;SDS011;6073;53.230;10.444;2023-11-18T12:03:26;3.55;;;2.35;;
12024;SDS011;6073;53.230;10.444;2023-11-18T12:05:54;2.22;;;1.80;;
12024;SDS011;6073;53.230;10.444;2023-11-18T12:08:22;2.83;;;2.25;;
12024;SDS011;6073;53.230;10.444;2023-11-18T12:10:51;2.42;;;2.10;;
12024;SDS011;6073;53.230;10.444;2023-11-18T12:13:19;2.60;;;2.15;;
12024;SDS011;6073;53.230;10.444;2023-11-18T12:15:48;2.22;;;2.00;;
12024;SDS011;6073;53.230;10.444;2023-11-18T12:18:28;3.35;;;2.28;;
12024;SDS011;6073;53.230;10.444;2023-11-18T12:20:56;3.50;;;1.70;;
12024;SDS011;6073;53.230;10.444;2023-11-18T12:23:26;2.28;;;1.63;;
12024;SDS011;6073;53.230;10.444;2023-11-18T12:25:53;2.00;;;1.48;;
12024;SDS011;6073;53.230;10.444;2023-11-18T12:31:00;2.60;;;1.77;;
12024;SDS011;6073;53.230;10.444;2023-11-18T12:41:42;2.03;;;1.67;;
12024;SDS011;6073;53.230;10.444;2023-11-18T12:44:15;2.53;;;1.92;;
12024;SDS011;6073;53.230;10.444;2023-11-18T12:46:48;5.75;;;2.95;;
12024;SDS011;6073;53.230;10.444;2023-11-18T12:49:15;2.60;;;2.20;;
12024;SDS011;6073;53.230;10.444;2023-11-18T12:51:51;2.75;;;2.30;;
12024;SDS011;6073;53.230;10.444;2023-11-18T12:54:19;3.58;;;2.72;;
12024;SDS011;6073;53.230;10.444;2023-11-18T12:56:45;2.50;;;1.70;;
12024;SDS011;6073;53.230;10.444;2023-11-18T12:59:17;2.40;;;1.80;;
12024;SDS011;6073;53.230;10.444;2023-11-18T13:01:52;4.40;;;2.55;;
12024;SDS011;6073;53.230;10.444;2023-11-18T13:04:24;1.90;;;1.60;;
12024;SDS011;6073;53.230;10.444;2023-11-18T13:06:50;2.17;;;1.60;;
12024;SDS011;6073;53.230;10.444;2023-11-18T13:09:16;1.75;;;1.58;;
12024;SDS011;6073;53.230;10.444;2023-11-18T13:11:54;2.35;;;1.67;;
12024;SDS011;6073;53.230;10.444;2023-11-18T13:14:22;2.42;;;2.15;;
12024;SDS011;6073;53.230;10.444;2023-11-18T13:16:50;2.47;;;1.85;;
12024;SDS011;6073;53.230;10.444;2023-11-18T13:19:26;1.80;;;1.55;;
12024;SDS011;6073;53.230;10.444;2023-11-18T13:21:56;1.63;;;1.48;;
12024;SDS011;6073;53.230;10.444;2023-11-18T13:24:28;1.55;;;1.45;;
12024;SDS011;6073;53.230;10.444;2023-11-18T13:26:54;2.00;;;1.52;;
12024;SDS011;6073;53.230;10.444;2023-11-18T13:29:21;1.60;;;1.50;;
12024;SDS011;6073;53.230;10.444;2023-11-18T13:31:48;1.80;;;1.60;;
12024;SDS011;6073;53.230;10.444;2023-11-18T13:34:14;3.38;;;2.20;;
12024;SDS011;6073;53.230;10.444;2023-11-18T13:36:41;4.47;;;2.45;;
12024;SDS011;6073;53.230;10.444;2023-11-18T13:39:08;2.75;;;2.00;;
12024;SDS011;6073;53.230;10.444;2023-11-18T13:41:41;2.25;;;2.00;;
12024;SDS011;6073;53.230;10.444;2023-11-18T13:44:07;1.70;;;1.60;;
12024;SDS011;6073;53.230;10.444;2023-11-18T13:46:37;2.20;;;1.77;;
12024;SDS011;6073;53.230;10.444;2023-11-18T13:49:05;3.63;;;1.95;;
12024;SDS011;6073;53.230;10.444;2023-11-18T13:51:31;3.95;;;2.25;;
12024;SDS011;6073;53.230;10.444;2023-11-18T13:53:58;2.97;;;2.20;;
12024;SDS011;6073;53.230;10.444;2023-11-18T13:56:24;3.40;;;1.90;;
12024;SDS011;6073;53.230;10.444;2023-11-18T13:58:52;3.88;;;2.50;;
12024;SDS011;6073;53.230;10.444;2023-11-18T14:01:19;4.78;;;3.47;;
12024;SDS011;6073;53.230;10.444;2023-11-18T14:03:46;5.38;;;4.20;;
12024;SDS011;6073;53.230;10.444;2023-11-18T14:06:12;5.63;;;4.30;;
12024;SDS011;6073;53.230;10.444;2023-11-18T14:08:42;4.35;;;3.35;;
12024;SDS011;6073;53.230;10.444;2023-11-18T14:11:09;6.80;;;4.00;;
12024;SDS011;6073;53.230;10.444;2023-11-18T14:13:35;3.97;;;3.20;;
12024;SDS011;6073;53.230;10.444;2023-11-18T14:16:02;6.03;;;3.80;;
12024;SDS011;6073;53.230;10.444;2023-11-18T14:18:28;4.95;;;3.50;;
12024;SDS011;6073;53.230;10.444;2023-11-18T14:20:54;5.45;;;3.88;;
12024;SDS011;6073;53.230;10.444;2023-11-18T14:23:20;5.80;;;3.75;;
12024;SDS011;6073;53.230;10.444;2023-11-18T14:25:47;4.57;;;3.38;;
12024;SDS011;6073;53.230;10.444;2023-11-18T14:28:13;4.05;;;3.20;;
12024;SDS011;6073;53.230;10.444;2023-11-18T14:30:39;4.55;;;3.28;;
12024;SDS011;6073;53.230;10.444;2023-11-18T14:33:05;4.68;;;3.20;;
12024;SDS011;6073;53.230;10.444;2023-11-18T14:35:31;4.65;;;2.92;;
12024;SDS011;6073;53.230;10.444;2023-11-18T14:37:58;4.03;;;3.10;;
12024;SDS011;6073;53.230;10.444;2023-11-18T14:40:25;4.35;;;3.05;;
12024;SDS011;6073;53.230;10.444;2023-11-18T14:42:52;4.88;;;3.25;;
12024;SDS011;6073;53.230;10.444;2023-11-18T14:45:19;3.22;;;2.50;;
12024;SDS011;6073;53.230;10.444;2023-11-18T14:47:44;3.38;;;2.70;;
12024;SDS011;6073;53.230;10.444;2023-11-18T14:50:12;4.43;;;2.85;;
12024;SDS011;6073;53.230;10.444;2023-11-18T14:52:48;4.10;;;3.13;;
12024;SDS011;6073;53.230;10.444;2023-11-18T14:55:16;2.97;;;2.53;;
12024;SDS011;6073;53.230;10.444;2023-11-18T14:57:43;3.50;;;2.55;;
12024;SDS011;6073;53.230;10.444;2023-11-18T15:00:10;4.30;;;3.30;;
12024;SDS011;6073;53.230;10.444;2023-11-18T15:02:50;4.18;;;3.33;;
12024;SDS011;6073;53.230;10.444;2023-11-18T15:05:21;3.63;;;3.00;;
12024;SDS011;6073;53.230;10.444;2023-11-18T15:10:18;4.15;;;2.65;;
12024;SDS011;6073;53.230;10.444;2023-11-18T15:12:48;3.47;;;2.42;;
12024;SDS011;6073;53.230;10.444;2023-11-18T15:15:21;3.83;;;3.17;;
12024;SDS011;6073;53.230;10.444;2023-11-18T15:17:48;4.47;;;2.50;;
12024;SDS011;6073;53.230;10.444;2023-11-18T15:20:17;3.75;;;2.70;;
12024;SDS011;6073;53.230;10.444;2023-11-18T15:22:48;3.47;;;2.65;;
12024;SDS011;6073;53.230;10.444;2023-11-18T15:25:14;5.35;;;4.20;;